Terminal Aerodrome Forecast
Issued by NWS

Home | Current Version | Previous Version | Text Only | Print | Product List | Glossary On
Versions: 1 2 3 4 5 6 7 8 9 10 11 12 13 14 15
000
FTUS46 KSEW 200500
TAFBLI
TAF
KBLI 200520Z 2006/2106 18009KT P6SM VCSH SCT020 BKN070
     FM201000 16008KT P6SM FEW020 BKN070
     FM201800 16008KT P6SM FEW040 SCT070 BKN120
     FM202000 16004KT P6SM SCT120
     FM210400 VRB04KT P6SM SCT120=

USA.gov is the U.S. government's official web portal to all federal, state and local government web resources and services.